sensor_id;sensor_type;location;lat;lon;timestamp;temperature;humidity
13268;DHT22;6702;47.068;15.458;2022-07-06T00:02:23;20.10;99.70
13268;DHT22;6702;47.068;15.458;2022-07-06T00:05:26;20.20;99.70
13268;DHT22;6702;47.068;15.458;2022-07-06T00:08:29;20.20;99.70
13268;DHT22;6702;47.068;15.458;2022-07-06T00:11:32;20.20;99.60
13268;DHT22;6702;47.068;15.458;2022-07-06T00:14:36;20.20;99.70
13268;DHT22;6702;47.068;15.458;2022-07-06T00:17:40;20.20;99.70
13268;DHT22;6702;47.068;15.458;2022-07-06T00:20:43;20.20;99.80
13268;DHT22;6702;47.068;15.458;2022-07-06T00:23:47;20.20;99.90
13268;DHT22;6702;47.068;15.458;2022-07-06T00:26:50;20.20;99.90
13268;DHT22;6702;47.068;15.458;2022-07-06T00:29:53;20.10;99.90
13268;DHT22;6702;47.068;15.458;2022-07-06T00:32:57;20.10;99.90
13268;DHT22;6702;47.068;15.458;2022-07-06T00:36:01;20.00;99.90
13268;DHT22;6702;47.068;15.458;2022-07-06T00:39:04;20.00;99.90
13268;DHT22;6702;47.068;15.458;2022-07-06T00:42:07;19.90;99.90
13268;DHT22;6702;47.068;15.458;2022-07-06T00:45:12;19.90;99.90
13268;DHT22;6702;47.068;15.458;2022-07-06T00:48:16;19.90;99.90
13268;DHT22;6702;47.068;15.458;2022-07-06T00:51:20;19.90;99.90
13268;DHT22;6702;47.068;15.458;2022-07-06T00:54:25;19.80;99.90
13268;DHT22;6702;47.068;15.458;2022-07-06T00:57:29;19.90;99.90
13268;DHT22;6702;47.068;15.458;2022-07-06T01:00:33;19.80;99.90
13268;DHT22;6702;47.068;15.458;2022-07-06T01:03:37;19.70;99.90
13268;DHT22;6702;47.068;15.458;2022-07-06T01:06:41;19.80;99.90
13268;DHT22;6702;47.068;15.458;2022-07-06T01:09:44;19.80;99.90
13268;DHT22;6702;47.068;15.458;2022-07-06T01:12:48;19.70;99.90
13268;DHT22;6702;47.068;15.458;2022-07-06T01:15:51;19.70;99.90
13268;DHT22;6702;47.068;15.458;2022-07-06T01:18:56;19.70;99.90
13268;DHT22;6702;47.068;15.458;2022-07-06T01:22:00;19.70;99.90
13268;DHT22;6702;47.068;15.458;2022-07-06T01:25:04;19.60;99.90
13268;DHT22;6702;47.068;15.458;2022-07-06T01:28:08;19.50;99.90
13268;DHT22;6702;47.068;15.458;2022-07-06T01:31:14;19.40;99.90
13268;DHT22;6702;47.068;15.458;2022-07-06T01:34:19;19.40;99.90
13268;DHT22;6702;47.068;15.458;2022-07-06T01:37:23;19.50;99.90
13268;DHT22;6702;47.068;15.458;2022-07-06T01:40:27;19.40;99.90
13268;DHT22;6702;47.068;15.458;2022-07-06T01:43:30;19.30;99.90
13268;DHT22;6702;47.068;15.458;2022-07-06T01:46:33;19.30;99.90
13268;DHT22;6702;47.068;15.458;2022-07-06T01:49:37;19.20;99.90
13268;DHT22;6702;47.068;15.458;2022-07-06T01:52:42;19.20;99.90
13268;DHT22;6702;47.068;15.458;2022-07-06T01:55:45;19.20;99.90
13268;DHT22;6702;47.068;15.458;2022-07-06T01:58:48;19.20;99.90
13268;DHT22;6702;47.068;15.458;2022-07-06T02:01:51;19.20;99.90
13268;DHT22;6702;47.068;15.458;2022-07-06T02:04:54;19.10;99.90
13268;DHT22;6702;47.068;15.458;2022-07-06T02:07:59;19.10;99.90
13268;DHT22;6702;47.068;15.458;2022-07-06T02:11:02;19.10;99.90
13268;DHT22;6702;47.068;15.458;2022-07-06T02:14:06;19.00;99.90
13268;DHT22;6702;47.068;15.458;2022-07-06T02:17:09;19.00;99.90
13268;DHT22;6702;47.068;15.458;2022-07-06T02:20:12;18.90;99.90
13268;DHT22;6702;47.068;15.458;2022-07-06T02:23:17;18.80;99.90
13268;DHT22;6702;47.068;15.458;2022-07-06T02:26:20;18.90;99.90
13268;DHT22;6702;47.068;15.458;2022-07-06T02:29:23;18.90;99.90
13268;DHT22;6702;47.068;15.458;2022-07-06T02:32:27;18.90;99.90
13268;DHT22;6702;47.068;15.458;2022-07-06T02:35:30;18.90;99.90
13268;DHT22;6702;47.068;15.458;2022-07-06T02:38:35;18.90;99.90
13268;DHT22;6702;47.068;15.458;2022-07-06T02:41:38;18.90;99.90
13268;DHT22;6702;47.068;15.458;2022-07-06T02:44:41;18.90;99.90
13268;DHT22;6702;47.068;15.458;2022-07-06T02:47:44;18.80;99.90
13268;DHT22;6702;47.068;15.458;2022-07-06T02:50:48;18.80;99.90
13268;DHT22;6702;47.068;15.458;2022-07-06T02:53:52;18.80;99.90
13268;DHT22;6702;47.068;15.458;2022-07-06T02:56:55;18.90;99.90
13268;DHT22;6702;47.068;15.458;2022-07-06T02:59:58;18.90;99.90
13268;DHT22;6702;47.068;15.458;2022-07-06T03:03:02;18.80;99.90
13268;DHT22;6702;47.068;15.458;2022-07-06T03:06:05;18.80;99.90
13268;DHT22;6702;47.068;15.458;2022-07-06T03:09:10;18.70;99.90
13268;DHT22;6702;47.068;15.458;2022-07-06T03:12:13;18.70;99.90
13268;DHT22;6702;47.068;15.458;2022-07-06T03:15:17;18.80;99.90
13268;DHT22;6702;47.068;15.458;2022-07-06T03:18:20;18.80;99.90
13268;DHT22;6702;47.068;15.458;2022-07-06T03:21:25;18.80;99.90
13268;DHT22;6702;47.068;15.458;2022-07-06T03:24:29;18.80;99.90
13268;DHT22;6702;47.068;15.458;2022-07-06T03:27:32;18.70;99.90
13268;DHT22;6702;47.068;15.458;2022-07-06T03:30:37;18.70;99.90
13268;DHT22;6702;47.068;15.458;2022-07-06T03:33:41;18.70;99.90
13268;DHT22;6702;47.068;15.458;2022-07-06T03:36:44;18.70;99.90
13268;DHT22;6702;47.068;15.458;2022-07-06T03:39:48;18.70;99.90
13268;DHT22;6702;47.068;15.458;2022-07-06T03:42:51;18.70;99.90
13268;DHT22;6702;47.068;15.458;2022-07-06T03:45:54;18.80;99.90
13268;DHT22;6702;47.068;15.458;2022-07-06T03:48:58;18.80;99.90
13268;DHT22;6702;47.068;15.458;2022-07-06T03:52:01;18.90;99.90
13268;DHT22;6702;47.068;15.458;2022-07-06T03:55:07;18.90;99.90
13268;DHT22;6702;47.068;15.458;2022-07-06T03:58:10;19.00;99.90
13268;DHT22;6702;47.068;15.458;2022-07-06T04:01:14;19.00;99.90
13268;DHT22;6702;47.068;15.458;2022-07-06T04:04:17;19.10;99.90
13268;DHT22;6702;47.068;15.458;2022-07-06T04:07:20;19.20;99.90
13268;DHT22;6702;47.068;15.458;2022-07-06T04:10:25;19.20;99.90
13268;DHT22;6702;47.068;15.458;2022-07-06T04:13:28;19.30;99.90
13268;DHT22;6702;47.068;15.458;2022-07-06T04:16:31;19.40;99.90
13268;DHT22;6702;47.068;15.458;2022-07-06T04:19:34;19.40;99.90
13268;DHT22;6702;47.068;15.458;2022-07-06T04:22:38;19.50;99.90
13268;DHT22;6702;47.068;15.458;2022-07-06T04:25:42;19.60;99.90
13268;DHT22;6702;47.068;15.458;2022-07-06T04:28:46;19.70;99.90
13268;DHT22;6702;47.068;15.458;2022-07-06T04:31:49;19.80;99.90
13268;DHT22;6702;47.068;15.458;2022-07-06T04:34:52;19.90;99.90
13268;DHT22;6702;47.068;15.458;2022-07-06T04:37:55;20.00;99.90
13268;DHT22;6702;47.068;15.458;2022-07-06T04:41:00;20.00;99.90
13268;DHT22;6702;47.068;15.458;2022-07-06T04:44:03;20.00;99.90
13268;DHT22;6702;47.068;15.458;2022-07-06T04:47:06;20.00;99.90
13268;DHT22;6702;47.068;15.458;2022-07-06T04:50:10;20.00;99.90
13268;DHT22;6702;47.068;15.458;2022-07-06T04:53:13;20.00;99.90
13268;DHT22;6702;47.068;15.458;2022-07-06T04:56:17;19.90;99.90
13268;DHT22;6702;47.068;15.458;2022-07-06T04:59:20;19.90;99.90
13268;DHT22;6702;47.068;15.458;2022-07-06T05:02:24;19.80;99.90
13268;DHT22;6702;47.068;15.458;2022-07-06T05:05:27;19.80;99.90
13268;DHT22;6702;47.068;15.458;2022-07-06T05:08:30;19.90;99.90
13268;DHT22;6702;47.068;15.458;2022-07-06T05:11:35;20.10;99.90
13268;DHT22;6702;47.068;15.458;2022-07-06T05:14:39;20.20;99.90
13268;DHT22;6702;47.068;15.458;2022-07-06T05:17:42;20.40;99.90
13268;DHT22;6702;47.068;15.458;2022-07-06T05:20:45;20.60;99.90
13268;DHT22;6702;47.068;15.458;2022-07-06T05:23:48;20.80;99.90
13268;DHT22;6702;47.068;15.458;2022-07-06T05:26:53;20.90;99.90
13268;DHT22;6702;47.068;15.458;2022-07-06T05:29:56;21.00;99.90
13268;DHT22;6702;47.068;15.458;2022-07-06T05:32:59;21.20;99.80
13268;DHT22;6702;47.068;15.458;2022-07-06T05:36:03;21.30;99.40
13268;DHT22;6702;47.068;15.458;2022-07-06T05:39:06;21.40;99.20
13268;DHT22;6702;47.068;15.458;2022-07-06T05:42:10;21.40;99.10
13268;DHT22;6702;47.068;15.458;2022-07-06T05:45:13;21.60;99.00
13268;DHT22;6702;47.068;15.458;2022-07-06T05:48:17;21.80;99.00
13268;DHT22;6702;47.068;15.458;2022-07-06T05:51:37;22.00;98.30
13268;DHT22;6702;47.068;15.458;2022-07-06T05:54:40;22.10;97.90
13268;DHT22;6702;47.068;15.458;2022-07-06T05:57:45;22.30;97.60
13268;DHT22;6702;47.068;15.458;2022-07-06T06:00:48;22.50;97.40
13268;DHT22;6702;47.068;15.458;2022-07-06T06:03:51;22.50;97.10
13268;DHT22;6702;47.068;15.458;2022-07-06T06:06:54;22.60;97.00
13268;DHT22;6702;47.068;15.458;2022-07-06T06:09:57;22.90;96.60
13268;DHT22;6702;47.068;15.458;2022-07-06T06:13:02;23.10;95.90
13268;DHT22;6702;47.068;15.458;2022-07-06T06:16:05;23.50;95.50
13268;DHT22;6702;47.068;15.458;2022-07-06T06:19:08;24.10;94.20
13268;DHT22;6702;47.068;15.458;2022-07-06T06:22:11;24.70;93.60
13268;DHT22;6702;47.068;15.458;2022-07-06T06:25:15;25.40;92.00
13268;DHT22;6702;47.068;15.458;2022-07-06T06:28:19;26.00;90.10
13268;DHT22;6702;47.068;15.458;2022-07-06T06:31:23;26.80;86.90
13268;DHT22;6702;47.068;15.458;2022-07-06T06:34:26;27.30;85.10
13268;DHT22;6702;47.068;15.458;2022-07-06T06:37:29;27.80;82.60
13268;DHT22;6702;47.068;15.458;2022-07-06T06:40:32;28.30;78.80
13268;DHT22;6702;47.068;15.458;2022-07-06T06:43:38;28.80;74.30
13268;DHT22;6702;47.068;15.458;2022-07-06T06:46:41;29.40;72.30
13268;DHT22;6702;47.068;15.458;2022-07-06T06:49:44;30.00;69.40
13268;DHT22;6702;47.068;15.458;2022-07-06T06:52:48;30.30;67.40
13268;DHT22;6702;47.068;15.458;2022-07-06T06:55:51;31.00;64.60
13268;DHT22;6702;47.068;15.458;2022-07-06T06:58:55;31.60;62.60
13268;DHT22;6702;47.068;15.458;2022-07-06T07:02:18;32.10;58.80
13268;DHT22;6702;47.068;15.458;2022-07-06T07:05:21;32.70;57.50
13268;DHT22;6702;47.068;15.458;2022-07-06T07:08:24;33.20;56.20
13268;DHT22;6702;47.068;15.458;2022-07-06T07:11:28;33.70;54.40
13268;DHT22;6702;47.068;15.458;2022-07-06T07:14:33;34.10;53.10
13268;DHT22;6702;47.068;15.458;2022-07-06T07:17:36;34.60;50.40
13268;DHT22;6702;47.068;15.458;2022-07-06T07:20:39;35.00;50.70
13268;DHT22;6702;47.068;15.458;2022-07-06T07:23:42;35.40;50.20
13268;DHT22;6702;47.068;15.458;2022-07-06T07:26:45;35.20;49.50
13268;DHT22;6702;47.068;15.458;2022-07-06T07:29:50;35.70;49.10
13268;DHT22;6702;47.068;15.458;2022-07-06T07:32:53;36.50;47.60
13268;DHT22;6702;47.068;15.458;2022-07-06T07:35:57;37.30;44.20
13268;DHT22;6702;47.068;15.458;2022-07-06T07:39:00;37.50;43.90
13268;DHT22;6702;47.068;15.458;2022-07-06T07:42:04;38.10;43.30
13268;DHT22;6702;47.068;15.458;2022-07-06T07:45:09;38.80;41.80
13268;DHT22;6702;47.068;15.458;2022-07-06T07:48:13;39.40;40.30
13268;DHT22;6702;47.068;15.458;2022-07-06T07:51:16;39.50;39.30
13268;DHT22;6702;47.068;15.458;2022-07-06T07:54:20;39.20;39.90
13268;DHT22;6702;47.068;15.458;2022-07-06T07:57:23;38.80;39.40
13268;DHT22;6702;47.068;15.458;2022-07-06T08:00:28;38.10;39.70
13268;DHT22;6702;47.068;15.458;2022-07-06T08:03:31;37.30;39.40
13268;DHT22;6702;47.068;15.458;2022-07-06T08:06:34;36.40;40.80
13268;DHT22;6702;47.068;15.458;2022-07-06T08:09:37;35.50;41.80
13268;DHT22;6702;47.068;15.458;2022-07-06T08:12:40;34.90;40.80
13268;DHT22;6702;47.068;15.458;2022-07-06T08:15:48;34.30;41.40
13268;DHT22;6702;47.068;15.458;2022-07-06T08:18:51;33.90;39.50
13268;DHT22;6702;47.068;15.458;2022-07-06T08:21:54;33.30;41.20
13268;DHT22;6702;47.068;15.458;2022-07-06T08:24:57;33.00;41.60
13268;DHT22;6702;47.068;15.458;2022-07-06T08:28:01;32.60;41.20
13268;DHT22;6702;47.068;15.458;2022-07-06T08:31:06;32.20;41.20
13268;DHT22;6702;47.068;15.458;2022-07-06T08:34:29;31.70;40.40
13268;DHT22;6702;47.068;15.458;2022-07-06T08:37:35;31.20;40.30
13268;DHT22;6702;47.068;15.458;2022-07-06T08:40:39;30.80;41.00
13268;DHT22;6702;47.068;15.458;2022-07-06T08:43:43;30.40;40.80
13268;DHT22;6702;47.068;15.458;2022-07-06T08:46:49;30.20;41.50
13268;DHT22;6702;47.068;15.458;2022-07-06T08:49:55;30.00;41.30
13268;DHT22;6702;47.068;15.458;2022-07-06T08:52:58;30.00;41.70
13268;DHT22;6702;47.068;15.458;2022-07-06T08:56:01;30.00;42.20
13268;DHT22;6702;47.068;15.458;2022-07-06T08:59:05;30.10;40.30
13268;DHT22;6702;47.068;15.458;2022-07-06T09:02:13;30.20;40.50
13268;DHT22;6702;47.068;15.458;2022-07-06T09:05:17;30.30;39.80
13268;DHT22;6702;47.068;15.458;2022-07-06T09:08:21;30.20;38.70
13268;DHT22;6702;47.068;15.458;2022-07-06T09:11:25;30.00;39.60
13268;DHT22;6702;47.068;15.458;2022-07-06T09:14:29;30.00;41.40
13268;DHT22;6702;47.068;15.458;2022-07-06T09:17:37;30.20;41.00
13268;DHT22;6702;47.068;15.458;2022-07-06T09:20:41;30.30;40.90
13268;DHT22;6702;47.068;15.458;2022-07-06T09:23:45;30.30;42.80
13268;DHT22;6702;47.068;15.458;2022-07-06T09:26:48;30.50;45.20
13268;DHT22;6702;47.068;15.458;2022-07-06T09:29:51;30.50;40.00
13268;DHT22;6702;47.068;15.458;2022-07-06T09:32:57;30.40;41.20
13268;DHT22;6702;47.068;15.458;2022-07-06T09:36:00;30.50;40.60
13268;DHT22;6702;47.068;15.458;2022-07-06T09:39:18;30.50;40.40
13268;DHT22;6702;47.068;15.458;2022-07-06T09:42:24;30.50;40.90
13268;DHT22;6702;47.068;15.458;2022-07-06T09:45:28;30.70;40.60
13268;DHT22;6702;47.068;15.458;2022-07-06T09:48:35;30.80;40.20
13268;DHT22;6702;47.068;15.458;2022-07-06T09:51:38;30.80;39.10
13268;DHT22;6702;47.068;15.458;2022-07-06T09:54:42;30.80;39.20
13268;DHT22;6702;47.068;15.458;2022-07-06T09:57:52;31.00;39.10
13268;DHT22;6702;47.068;15.458;2022-07-06T10:00:56;31.10;39.10
13268;DHT22;6702;47.068;15.458;2022-07-06T10:04:01;31.20;39.00
13268;DHT22;6702;47.068;15.458;2022-07-06T10:07:05;31.10;38.80
13268;DHT22;6702;47.068;15.458;2022-07-06T10:10:11;30.80;39.50
13268;DHT22;6702;47.068;15.458;2022-07-06T10:13:15;30.40;38.90
13268;DHT22;6702;47.068;15.458;2022-07-06T10:16:23;30.20;38.80
13268;DHT22;6702;47.068;15.458;2022-07-06T10:19:29;30.10;39.30
13268;DHT22;6702;47.068;15.458;2022-07-06T10:22:34;30.10;40.30
13268;DHT22;6702;47.068;15.458;2022-07-06T10:25:37;30.10;39.10
13268;DHT22;6702;47.068;15.458;2022-07-06T10:28:41;30.10;38.50
13268;DHT22;6702;47.068;15.458;2022-07-06T10:31:46;30.20;37.80
13268;DHT22;6702;47.068;15.458;2022-07-06T10:34:51;30.20;37.70
13268;DHT22;6702;47.068;15.458;2022-07-06T10:38:04;30.30;38.80
13268;DHT22;6702;47.068;15.458;2022-07-06T10:41:09;30.60;39.10
13268;DHT22;6702;47.068;15.458;2022-07-06T10:44:16;30.70;36.40
13268;DHT22;6702;47.068;15.458;2022-07-06T10:47:27;30.80;36.40
13268;DHT22;6702;47.068;15.458;2022-07-06T10:50:35;30.90;35.30
13268;DHT22;6702;47.068;15.458;2022-07-06T10:53:40;31.00;35.30
13268;DHT22;6702;47.068;15.458;2022-07-06T10:56:44;30.90;35.40
13268;DHT22;6702;47.068;15.458;2022-07-06T11:00:00;30.80;34.50
13268;DHT22;6702;47.068;15.458;2022-07-06T11:06:45;30.80;36.90
13268;DHT22;6702;47.068;15.458;2022-07-06T11:09:54;30.60;34.90
13268;DHT22;6702;47.068;15.458;2022-07-06T11:12:59;30.60;36.30
13268;DHT22;6702;47.068;15.458;2022-07-06T11:16:03;30.70;36.90
13268;DHT22;6702;47.068;15.458;2022-07-06T11:19:09;30.90;37.50
13268;DHT22;6702;47.068;15.458;2022-07-06T11:22:16;30.90;36.00
13268;DHT22;6702;47.068;15.458;2022-07-06T11:25:20;30.80;36.10
13268;DHT22;6702;47.068;15.458;2022-07-06T11:28:24;30.80;36.40
13268;DHT22;6702;47.068;15.458;2022-07-06T11:31:29;30.90;36.40
13268;DHT22;6702;47.068;15.458;2022-07-06T11:34:33;30.90;36.10
13268;DHT22;6702;47.068;15.458;2022-07-06T11:37:38;30.90;35.90
13268;DHT22;6702;47.068;15.458;2022-07-06T11:40:41;31.00;35.40
13268;DHT22;6702;47.068;15.458;2022-07-06T11:43:45;31.00;34.90
13268;DHT22;6702;47.068;15.458;2022-07-06T11:46:48;31.10;34.50
13268;DHT22;6702;47.068;15.458;2022-07-06T11:49:52;31.20;36.20
13268;DHT22;6702;47.068;15.458;2022-07-06T11:52:56;31.20;36.00
13268;DHT22;6702;47.068;15.458;2022-07-06T11:56:02;31.10;35.20
13268;DHT22;6702;47.068;15.458;2022-07-06T11:59:06;31.00;34.80
13268;DHT22;6702;47.068;15.458;2022-07-06T12:02:12;31.00;34.30
13268;DHT22;6702;47.068;15.458;2022-07-06T12:05:29;31.10;35.00
13268;DHT22;6702;47.068;15.458;2022-07-06T12:08:41;31.30;34.80
13268;DHT22;6702;47.068;15.458;2022-07-06T12:11:45;31.30;34.10
13268;DHT22;6702;47.068;15.458;2022-07-06T12:14:52;31.30;35.20
13268;DHT22;6702;47.068;15.458;2022-07-06T12:17:55;31.30;34.80
13268;DHT22;6702;47.068;15.458;2022-07-06T12:20:58;31.30;35.60
13268;DHT22;6702;47.068;15.458;2022-07-06T12:24:06;31.40;34.30
13268;DHT22;6702;47.068;15.458;2022-07-06T12:27:11;31.50;35.40
13268;DHT22;6702;47.068;15.458;2022-07-06T12:30:15;31.60;34.20
13268;DHT22;6702;47.068;15.458;2022-07-06T12:33:24;31.30;34.20
13268;DHT22;6702;47.068;15.458;2022-07-06T12:36:30;31.10;33.80
13268;DHT22;6702;47.068;15.458;2022-07-06T12:39:42;31.20;34.10
13268;DHT22;6702;47.068;15.458;2022-07-06T12:42:46;31.30;33.90
13268;DHT22;6702;47.068;15.458;2022-07-06T12:45:49;31.40;34.60
13268;DHT22;6702;47.068;15.458;2022-07-06T12:48:54;31.60;33.80
13268;DHT22;6702;47.068;15.458;2022-07-06T12:51:59;31.50;33.20
13268;DHT22;6702;47.068;15.458;2022-07-06T12:55:05;31.40;33.10
13268;DHT22;6702;47.068;15.458;2022-07-06T12:58:18;31.30;33.20
13268;DHT22;6702;47.068;15.458;2022-07-06T13:01:21;31.20;33.20
13268;DHT22;6702;47.068;15.458;2022-07-06T13:04:25;31.10;33.40
13268;DHT22;6702;47.068;15.458;2022-07-06T13:07:30;31.10;33.60
13268;DHT22;6702;47.068;15.458;2022-07-06T13:10:35;31.20;34.00
13268;DHT22;6702;47.068;15.458;2022-07-06T13:13:43;31.20;34.00
13268;DHT22;6702;47.068;15.458;2022-07-06T13:16:47;30.90;33.30
13268;DHT22;6702;47.068;15.458;2022-07-06T13:19:50;31.00;34.00
13268;DHT22;6702;47.068;15.458;2022-07-06T13:22:54;31.10;33.50
13268;DHT22;6702;47.068;15.458;2022-07-06T13:25:58;31.20;34.10
13268;DHT22;6702;47.068;15.458;2022-07-06T13:29:03;31.30;33.70
13268;DHT22;6702;47.068;15.458;2022-07-06T13:32:07;31.40;34.30
13268;DHT22;6702;47.068;15.458;2022-07-06T13:35:10;31.50;33.00
13268;DHT22;6702;47.068;15.458;2022-07-06T13:38:13;31.60;33.90
13268;DHT22;6702;47.068;15.458;2022-07-06T13:41:18;31.60;33.50
13268;DHT22;6702;47.068;15.458;2022-07-06T13:44:21;31.60;33.70
13268;DHT22;6702;47.068;15.458;2022-07-06T13:47:24;31.40;34.00
13268;DHT22;6702;47.068;15.458;2022-07-06T13:50:27;31.40;33.40
13268;DHT22;6702;47.068;15.458;2022-07-06T13:53:34;31.40;33.00
13268;DHT22;6702;47.068;15.458;2022-07-06T13:56:39;31.40;33.30
13268;DHT22;6702;47.068;15.458;2022-07-06T13:59:43;31.50;34.10
13268;DHT22;6702;47.068;15.458;2022-07-06T14:02:48;31.50;32.40
13268;DHT22;6702;47.068;15.458;2022-07-06T14:05:51;31.70;33.40
13268;DHT22;6702;47.068;15.458;2022-07-06T14:08:54;31.90;34.30
13268;DHT22;6702;47.068;15.458;2022-07-06T14:11:59;32.20;34.50
13268;DHT22;6702;47.068;15.458;2022-07-06T14:15:02;32.20;32.80
13268;DHT22;6702;47.068;15.458;2022-07-06T14:18:05;32.20;32.80
13268;DHT22;6702;47.068;15.458;2022-07-06T14:21:08;32.20;33.80
13268;DHT22;6702;47.068;15.458;2022-07-06T14:24:11;32.20;33.00
13268;DHT22;6702;47.068;15.458;2022-07-06T14:27:16;32.30;32.80
13268;DHT22;6702;47.068;15.458;2022-07-06T14:30:19;32.30;33.10
13268;DHT22;6702;47.068;15.458;2022-07-06T14:33:22;32.40;33.70
13268;DHT22;6702;47.068;15.458;2022-07-06T14:36:26;32.30;33.40
13268;DHT22;6702;47.068;15.458;2022-07-06T14:39:29;32.20;34.00
13268;DHT22;6702;47.068;15.458;2022-07-06T14:42:34;32.10;34.50
13268;DHT22;6702;47.068;15.458;2022-07-06T14:45:37;31.70;34.20
13268;DHT22;6702;47.068;15.458;2022-07-06T14:48:41;31.40;35.50
13268;DHT22;6702;47.068;15.458;2022-07-06T14:51:44;31.20;36.10
13268;DHT22;6702;47.068;15.458;2022-07-06T14:54:47;31.10;36.60
13268;DHT22;6702;47.068;15.458;2022-07-06T14:57:52;30.90;37.20
13268;DHT22;6702;47.068;15.458;2022-07-06T15:00:57;30.70;37.40
13268;DHT22;6702;47.068;15.458;2022-07-06T15:04:00;30.50;37.80
13268;DHT22;6702;47.068;15.458;2022-07-06T15:07:04;30.50;37.40
13268;DHT22;6702;47.068;15.458;2022-07-06T15:10:08;30.40;38.30
13268;DHT22;6702;47.068;15.458;2022-07-06T15:13:13;30.20;37.50
13268;DHT22;6702;47.068;15.458;2022-07-06T15:16:16;30.20;37.90
13268;DHT22;6702;47.068;15.458;2022-07-06T15:19:19;30.10;37.10
13268;DHT22;6702;47.068;15.458;2022-07-06T15:22:23;30.00;37.90
13268;DHT22;6702;47.068;15.458;2022-07-06T15:25:26;30.00;37.80
13268;DHT22;6702;47.068;15.458;2022-07-06T15:28:31;30.00;38.20
13268;DHT22;6702;47.068;15.458;2022-07-06T15:31:34;29.90;38.10
13268;DHT22;6702;47.068;15.458;2022-07-06T15:34:37;29.70;38.90
13268;DHT22;6702;47.068;15.458;2022-07-06T15:37:40;29.70;39.30
13268;DHT22;6702;47.068;15.458;2022-07-06T15:40:44;30.00;39.60
13268;DHT22;6702;47.068;15.458;2022-07-06T15:43:51;30.30;39.40
13268;DHT22;6702;47.068;15.458;2022-07-06T15:46:56;30.50;39.10
13268;DHT22;6702;47.068;15.458;2022-07-06T15:49:59;30.50;38.80
13268;DHT22;6702;47.068;15.458;2022-07-06T15:53:03;30.50;39.20
13268;DHT22;6702;47.068;15.458;2022-07-06T15:56:06;30.30;38.80
13268;DHT22;6702;47.068;15.458;2022-07-06T15:59:11;30.30;38.40
13268;DHT22;6702;47.068;15.458;2022-07-06T16:02:14;30.30;38.20
13268;DHT22;6702;47.068;15.458;2022-07-06T16:05:18;30.30;37.70
13268;DHT22;6702;47.068;15.458;2022-07-06T16:08:23;30.20;37.70
13268;DHT22;6702;47.068;15.458;2022-07-06T16:11:43;30.30;38.30
13268;DHT22;6702;47.068;15.458;2022-07-06T16:14:47;30.40;37.90
13268;DHT22;6702;47.068;15.458;2022-07-06T16:17:51;30.40;38.40
13268;DHT22;6702;47.068;15.458;2022-07-06T16:20:55;30.50;38.60
13268;DHT22;6702;47.068;15.458;2022-07-06T16:23:58;30.50;39.80
13268;DHT22;6702;47.068;15.458;2022-07-06T16:27:01;30.50;39.80
13268;DHT22;6702;47.068;15.458;2022-07-06T16:30:08;30.50;40.70
13268;DHT22;6702;47.068;15.458;2022-07-06T16:33:11;30.40;41.20
13268;DHT22;6702;47.068;15.458;2022-07-06T16:36:15;30.40;41.60
13268;DHT22;6702;47.068;15.458;2022-07-06T16:39:18;30.40;40.20
13268;DHT22;6702;47.068;15.458;2022-07-06T16:42:21;30.20;39.50
13268;DHT22;6702;47.068;15.458;2022-07-06T16:45:26;30.10;39.70
13268;DHT22;6702;47.068;15.458;2022-07-06T16:48:29;30.10;39.70
13268;DHT22;6702;47.068;15.458;2022-07-06T16:51:33;30.10;43.00
13268;DHT22;6702;47.068;15.458;2022-07-06T16:54:36;29.70;44.00
13268;DHT22;6702;47.068;15.458;2022-07-06T16:57:39;29.40;44.90
13268;DHT22;6702;47.068;15.458;2022-07-06T17:00:46;29.20;45.30
13268;DHT22;6702;47.068;15.458;2022-07-06T17:03:49;29.00;45.70
13268;DHT22;6702;47.068;15.458;2022-07-06T17:06:53;28.50;46.80
13268;DHT22;6702;47.068;15.458;2022-07-06T17:09:56;28.20;46.90
13268;DHT22;6702;47.068;15.458;2022-07-06T17:13:00;27.90;48.10
13268;DHT22;6702;47.068;15.458;2022-07-06T17:16:05;27.90;49.10
13268;DHT22;6702;47.068;15.458;2022-07-06T17:19:08;27.90;49.20
13268;DHT22;6702;47.068;15.458;2022-07-06T17:22:11;27.90;49.20
13268;DHT22;6702;47.068;15.458;2022-07-06T17:25:15;27.80;49.20
13268;DHT22;6702;47.068;15.458;2022-07-06T17:28:18;27.60;49.70
13268;DHT22;6702;47.068;15.458;2022-07-06T17:31:22;27.60;50.30
13268;DHT22;6702;47.068;15.458;2022-07-06T17:34:26;27.40;50.90
13268;DHT22;6702;47.068;15.458;2022-07-06T17:37:29;27.40;51.60
13268;DHT22;6702;47.068;15.458;2022-07-06T17:40:32;27.30;52.00
13268;DHT22;6702;47.068;15.458;2022-07-06T17:43:36;27.20;52.50
13268;DHT22;6702;47.068;15.458;2022-07-06T17:46:51;27.10;52.80
13268;DHT22;6702;47.068;15.458;2022-07-06T17:49:54;26.90;53.30
13268;DHT22;6702;47.068;15.458;2022-07-06T17:52:57;26.90;53.60
13268;DHT22;6702;47.068;15.458;2022-07-06T17:56:00;26.80;53.90
13268;DHT22;6702;47.068;15.458;2022-07-06T17:59:04;26.80;53.90
13268;DHT22;6702;47.068;15.458;2022-07-06T18:02:08;26.70;54.10
13268;DHT22;6702;47.068;15.458;2022-07-06T18:05:12;26.40;54.80
13268;DHT22;6702;47.068;15.458;2022-07-06T18:08:18;26.40;55.00
13268;DHT22;6702;47.068;15.458;2022-07-06T18:11:21;26.30;55.10
13268;DHT22;6702;47.068;15.458;2022-07-06T18:14:24;26.40;55.20
13268;DHT22;6702;47.068;15.458;2022-07-06T18:17:29;26.30;55.50
13268;DHT22;6702;47.068;15.458;2022-07-06T18:20:32;26.30;55.80
13268;DHT22;6702;47.068;15.458;2022-07-06T18:23:35;26.30;56.60
13268;DHT22;6702;47.068;15.458;2022-07-06T18:26:39;26.30;55.70
13268;DHT22;6702;47.068;15.458;2022-07-06T18:29:42;26.20;55.80
13268;DHT22;6702;47.068;15.458;2022-07-06T18:32:46;26.20;56.10
13268;DHT22;6702;47.068;15.458;2022-07-06T18:35:52;26.20;56.30
13268;DHT22;6702;47.068;15.458;2022-07-06T18:38:56;26.10;56.40
13268;DHT22;6702;47.068;15.458;2022-07-06T18:42:00;26.00;57.00
13268;DHT22;6702;47.068;15.458;2022-07-06T18:45:04;26.00;57.20
13268;DHT22;6702;47.068;15.458;2022-07-06T18:48:09;26.00;57.40
13268;DHT22;6702;47.068;15.458;2022-07-06T18:51:14;25.90;57.80
13268;DHT22;6702;47.068;15.458;2022-07-06T18:54:17;25.90;58.20
13268;DHT22;6702;47.068;15.458;2022-07-06T18:57:20;25.90;60.00
13268;DHT22;6702;47.068;15.458;2022-07-06T19:00:23;25.70;59.00
13268;DHT22;6702;47.068;15.458;2022-07-06T19:03:28;25.40;59.50
13268;DHT22;6702;47.068;15.458;2022-07-06T19:06:31;25.40;59.80
13268;DHT22;6702;47.068;15.458;2022-07-06T19:09:34;25.40;59.80
13268;DHT22;6702;47.068;15.458;2022-07-06T19:12:37;25.30;59.90
13268;DHT22;6702;47.068;15.458;2022-07-06T19:15:41;25.00;60.50
13268;DHT22;6702;47.068;15.458;2022-07-06T19:18:45;25.10;61.40
13268;DHT22;6702;47.068;15.458;2022-07-06T19:21:48;25.20;61.30
13268;DHT22;6702;47.068;15.458;2022-07-06T19:24:52;25.20;61.30
13268;DHT22;6702;47.068;15.458;2022-07-06T19:27:55;25.20;60.90